Time;durP1;ratioP1;P1;durP2;ratioP2;P2;SDS_P1;SDS_P2;PMS_P1;PMS_P2;Temp;Humidity;BMP_temperature;BMP_pressure;BME280_temperature;BME280_humidity;BME280_pressure;Samples;Min_cycle;Max_cycle;Signal;HPM_P1;HPM_P2
2023/03/24 00:06:42;;;;;;;1.80;1.10;;;;;;;17.88;63.07;99415.34;20755634;28;20576;-81
2023/03/24 00:16:44;;;;;;;2.22;0.93;;;;;;;17.91;63.22;99402.38;20715637;28;20046;-81
2023/03/24 00:26:47;;;;;;;1.95;1.00;;;;;;;17.66;63.13;99342.38;20744306;28;20129;-82
2023/03/24 00:36:50;;;;;;;1.17;0.85;;;;;;;17.99;63.29;99374.56;20738769;28;20053;-82
2023/03/24 00:46:54;;;;;;;1.77;1.17;;;;;;;18.00;63.28;99359.28;20721477;28;20050;-82
2023/03/24 00:56:56;;;;;;;;;;;;;;;17.99;63.46;99353.03;20705189;28;20046;-82
2023/03/24 01:06:58;;;;;;;1.20;0.90;;;;;;;17.97;63.45;99333.53;20721980;28;19992;-82
2023/03/24 01:17:00;;;;;;;1.10;0.80;;;;;;;17.99;63.46;99304.56;20739582;28;20049;-81
2023/03/24 01:27:02;;;;;;;1.73;0.90;;;;;;;17.82;63.56;99266.97;20733469;28;20078;-82
2023/03/24 01:37:05;;;;;;;2.17;0.93;;;;;;;17.98;63.62;99259.81;20713664;28;20104;-82
2023/03/24 01:47:07;;;;;;;1.90;0.90;;;;;;;17.98;63.50;99244.50;20731830;28;20100;-82
2023/03/24 01:57:23;;;;;;;1.52;0.70;;;;;;;17.98;63.70;99228.34;20667276;28;20513;-82
2023/03/24 02:07:33;;;;;;;1.88;0.80;;;;;;;17.98;63.71;99214.03;20708591;28;20042;-81
2023/03/24 02:17:59;;;;;;;1.10;0.68;;;;;;;17.98;63.77;99192.50;20722166;28;20042;-82
2023/03/24 02:28:10;;;;;;;1.73;0.82;;;;;;;17.98;63.97;99179.03;20718004;28;20058;-81
2023/03/24 02:38:21;;;;;;;1.25;1.00;;;;;;;17.96;64.01;99160.38;20699273;28;20127;-81
2023/03/24 02:48:52;;;;;;;2.03;0.90;;;;;;;17.97;64.15;99145.06;20724337;28;20046;-82
2023/03/24 02:59:01;;;;;;;1.30;0.70;;;;;;;17.88;64.21;99114.66;20716713;28;20062;-81
2023/03/24 03:09:10;;;;;;;0.88;0.60;;;;;;;17.97;64.27;99118.97;20712147;28;20073;-82
2023/03/24 03:19:21;;;;;;;0.82;0.68;;;;;;;17.96;64.10;99111.06;20717700;28;20057;-81
2023/03/24 03:29:25;;;;;;;0.63;0.63;;;;;;;17.96;64.33;99106.53;20720655;28;20576;-81
2023/03/24 03:39:30;;;;;;;1.80;1.33;;;;;;;17.79;64.34;99081.59;20706111;28;20204;-81
2023/03/24 03:49:35;;;;;;;1.00;0.80;;;;;;;17.91;64.47;99133.16;20701336;28;20054;-82
2023/03/24 03:59:37;;;;;;;1.08;0.80;;;;;;;17.96;64.54;99191.84;20736000;28;20054;-82
2023/03/24 04:10:28;;;;;;;0.95;0.70;;;;;;;17.96;64.64;99229.53;20714392;28;20046;-82
2023/03/24 04:20:46;;;;;;;1.25;0.68;;;;;;;17.96;64.59;99246.53;20551767;28;20084;-82
2023/03/24 04:31:00;;;;;;;1.15;0.73;;;;;;;17.94;64.51;99280.88;20729368;28;20074;-81
2023/03/24 04:41:04;;;;;;;0.60;0.60;;;;;;;17.95;64.35;99303.25;20722275;28;20069;-81
2023/03/24 04:51:08;;;;;;;1.35;0.70;;;;;;;17.91;64.20;99312.69;20708653;28;20132;-81
2023/03/24 05:01:36;;;;;;;1.20;0.60;;;;;;;17.92;64.20;99317.06;20722790;28;20049;-81
2023/03/24 05:11:59;;;;;;;1.13;0.65;;;;;;;17.85;64.15;99329.53;20713186;28;20050;-81
2023/03/24 05:22:12;;;;;;;0.65;0.52;;;;;;;17.94;63.97;99371.56;20712464;28;20140;-81
2023/03/24 05:32:14;;;;;;;1.20;0.70;;;;;;;17.60;63.73;99343.91;20743673;28;20041;-81
2023/03/24 05:42:18;;;;;;;1.00;0.50;;;;;;;17.93;63.82;99397.66;20745039;28;20052;-82
2023/03/24 05:52:21;;;;;;;1.05;0.73;;;;;;;17.89;63.61;99400.88;20723636;28;20471;-82
2023/03/24 06:02:28;;;;;;;1.23;0.70;;;;;;;17.80;63.49;99402.72;20733836;28;20049;-82
2023/03/24 06:12:38;;;;;;;1.15;0.80;;;;;;;17.85;63.18;99421.91;20766653;28;20053;-82
2023/03/24 06:22:43;;;;;;;1.10;0.60;;;;;;;17.93;63.10;99461.44;20755784;28;20637;-82
2023/03/24 06:32:47;;;;;;;2.45;0.63;;;;;;;17.81;63.00;99459.09;20741743;28;20486;-81
2023/03/24 06:42:51;;;;;;;0.90;0.60;;;;;;;17.82;62.78;99466.16;20698262;28;20080;-82
2023/03/24 06:52:53;;;;;;;1.13;0.70;;;;;;;17.78;62.73;99480.97;20705813;28;20469;-81
2023/03/24 07:02:56;;;;;;;2.00;0.82;;;;;;;17.89;62.53;99503.16;20692590;28;20049;-81
2023/03/24 07:13:00;;;;;;;1.42;0.55;;;;;;;17.86;62.38;99500.81;20705745;28;20137;-81
2023/03/24 07:23:02;;;;;;;0.93;0.60;;;;;;;17.84;62.20;99525.22;20736851;28;20133;-81
2023/03/24 07:33:23;;;;;;;2.05;0.82;;;;;;;17.90;62.07;99542.53;20691945;28;20050;-81
2023/03/24 07:43:25;;;;;;;1.77;0.80;;;;;;;17.91;62.03;99555.84;20730590;28;20104;-81
2023/03/24 07:53:51;;;;;;;1.15;0.65;;;;;;;17.96;61.84;99560.72;20735280;28;20053;-80
2023/03/24 08:04:05;;;;;;;1.50;0.70;;;;;;;17.96;61.66;99580.41;20725344;28;20045;-85
2023/03/24 08:14:26;;;;;;;1.73;0.85;;;;;;;17.94;61.45;99582.44;20735342;28;20054;-82
2023/03/24 08:24:27;;;;;;;1.98;1.10;;;;;;;18.01;61.35;99598.78;20739204;28;20226;-82
2023/03/24 08:34:29;;;;;;;3.17;1.45;;;;;;;17.96;61.34;99593.03;20721678;28;20450;-82
2023/03/24 08:44:31;;;;;;;0.98;0.63;;;;;;;18.01;61.04;99603.34;20730988;28;20537;-81
2023/03/24 08:54:33;;;;;;;2.28;0.98;;;;;;;18.02;61.52;99600.44;20735424;28;20038;-82
2023/03/24 09:04:36;;;;;;;2.22;1.10;;;;;;;18.13;61.49;99623.50;20729901;28;20128;-80
2023/03/24 09:14:37;;;;;;;2.55;1.45;;;;;;;18.15;61.59;99623.34;20720607;28;20117;-81
2023/03/24 09:24:39;;;;;;;3.25;1.20;;;;;;;18.08;61.56;99618.63;20743748;28;20085;-81
2023/03/24 09:34:41;;;;;;;3.25;0.93;;;;;;;18.15;61.52;99658.38;20733122;28;20056;-86
2023/03/24 09:44:46;;;;;;;3.58;1.00;;;;;;;18.14;61.45;99670.16;20716002;28;20046;-85
2023/03/24 09:54:57;;;;;;;3.20;1.45;;;;;;;18.13;61.24;99680.06;20740589;28;20062;-84
2023/03/24 10:04:59;;;;;;;3.83;1.20;;;;;;;18.14;60.93;99699.78;20698500;28;20081;-85
2023/03/24 10:15:06;;;;;;;3.35;1.20;;;;;;;18.12;60.80;99708.03;20697193;28;20084;-81
2023/03/24 10:25:32;;;;;;;3.80;1.40;;;;;;;18.11;60.46;99707.16;20742345;28;20052;-81
2023/03/24 10:35:46;;;;;;;4.20;1.30;;;;;;;18.11;60.24;99719.81;20746275;28;20046;-81
2023/03/24 10:45:50;;;;;;;6.85;1.63;;;;;;;18.11;60.16;99712.56;20714053;28;20104;-81
2023/03/24 10:55:52;;;;;;;2.95;0.95;;;;;;;18.10;59.94;99710.88;20742858;28;20046;-81
2023/03/24 11:06:00;;;;;;;3.13;1.10;;;;;;;18.08;59.67;99734.44;20744837;28;20042;-81
2023/03/24 11:16:15;;;;;;;3.03;1.48;;;;;;;18.09;59.33;99728.03;20761627;28;20041;-82
2023/03/24 11:26:22;;;;;;;3.13;1.42;;;;;;;18.00;58.98;99717.41;20742259;28;20516;-81
2023/03/24 11:36:31;;;;;;;5.13;1.67;;;;;;;18.10;58.72;99742.34;20758393;28;20566;-81
2023/03/24 11:46:34;;;;;;;2.70;1.10;;;;;;;18.08;58.42;99745.19;20758887;28;20418;-82
2023/03/24 11:56:39;;;;;;;2.70;0.90;;;;;;;18.08;58.09;99723.66;20740374;28;20066;-81
2023/03/24 12:07:09;;;;;;;2.38;0.98;;;;;;;18.09;57.81;99743.38;20757188;28;20050;-81
2023/03/24 12:17:16;;;;;;;2.80;1.25;;;;;;;17.82;57.51;99678.84;20755868;28;20044;-81
2023/03/24 12:27:31;;;;;;;2.72;0.98;;;;;;;18.06;57.61;99725.69;20737767;28;20076;-81
2023/03/24 12:38:10;;;;;;;3.07;1.03;;;;;;;17.85;57.56;99701.88;20753940;28;20073;-81
2023/03/24 12:48:44;;;;;;;2.65;1.10;;;;;;;18.07;57.09;99721.16;20701736;28;20073;-81
2023/03/24 12:58:52;;;;;;;3.22;1.05;;;;;;;18.07;57.32;99730.06;20753051;28;20053;-81
2023/03/24 13:09:18;;;;;;;3.25;1.13;;;;;;;18.07;57.06;99732.75;20752409;28;20491;-81
2023/03/24 13:19:22;;;;;;;3.95;1.25;;;;;;;18.00;56.50;99715.53;20752362;28;20049;-81
2023/03/24 13:29:39;;;;;;;4.07;1.13;;;;;;;18.07;56.64;99727.38;20749195;28;20054;-82
2023/03/24 13:39:55;;;;;;;1.77;0.95;;;;;;;17.92;56.64;99685.91;20750179;28;20073;-82
2023/03/24 13:49:59;;;;;;;1.67;0.93;;;;;;;18.07;56.67;99726.53;20747276;28;20056;-82
2023/03/24 14:00:10;;;;;;;2.35;1.20;;;;;;;18.06;56.71;99725.69;20748480;28;20185;-82
2023/03/24 14:10:12;;;;;;;2.17;1.10;;;;;;;18.05;56.46;99707.84;20748558;28;20501;-82
2023/03/24 14:20:32;;;;;;;2.47;1.15;;;;;;;18.01;56.44;99706.47;20747020;28;20251;-82
2023/03/24 14:30:36;;;;;;;2.58;0.82;;;;;;;18.06;56.22;99716.78;20728760;28;20072;-82
2023/03/24 14:40:59;;;;;;;3.00;0.93;;;;;;;17.98;56.22;99702.25;20744401;28;20038;-81
2023/03/24 14:51:19;;;;;;;2.88;0.75;;;;;;;18.00;56.09;99699.38;20742956;28;20057;-82
2023/03/24 15:01:25;;;;;;;3.88;1.15;;;;;;;17.96;56.07;99692.66;20745205;28;20112;-82
2023/03/24 15:11:29;;;;;;;2.72;0.98;;;;;;;18.05;56.01;99707.84;20744852;28;20042;-82
2023/03/24 15:21:37;;;;;;;2.93;1.10;;;;;;;18.04;56.15;99689.16;20726610;28;20050;-82
2023/03/24 15:31:39;;;;;;;3.38;0.82;;;;;;;18.05;55.98;99694.38;20726961;28;20041;-81
2023/03/24 15:41:41;;;;;;;2.75;0.98;;;;;;;18.04;56.04;99690.00;20744054;28;20046;-82
2023/03/24 15:52:09;;;;;;;2.42;1.10;;;;;;;18.04;56.02;99676.53;20724632;28;20054;-81
2023/03/24 16:02:41;;;;;;;1.65;0.80;;;;;;;18.01;55.88;99674.16;20751964;28;20054;-81
2023/03/24 16:12:43;;;;;;;3.63;1.40;;;;;;;18.01;55.71;99663.41;20735822;28;20096;-82
2023/03/24 16:22:45;;;;;;;1.88;0.70;;;;;;;18.00;56.24;99691.31;20754096;28;20042;-81
2023/03/24 16:32:47;;;;;;;2.83;0.85;;;;;;;17.88;56.40;99663.03;20755982;28;20041;-81
2023/03/24 16:42:49;;;;;;;1.58;0.70;;;;;;;17.95;56.44;99681.06;20754162;28;20046;-81
2023/03/24 16:52:51;;;;;;;1.80;0.93;;;;;;;17.94;57.09;99675.81;20722414;28;20052;-83
2023/03/24 17:02:52;;;;;;;2.63;0.90;;;;;;;17.98;57.13;99690.63;20710667;28;20148;-82
2023/03/24 17:12:55;;;;;;;1.60;0.70;;;;;;;17.92;57.74;99675.16;20719734;28;20541;-86
2023/03/24 17:22:57;;;;;;;2.70;1.00;;;;;;;17.96;58.05;99687.25;20715858;28;20073;-82
2023/03/24 17:32:59;;;;;;;1.60;0.70;;;;;;;17.94;58.28;99681.19;20709005;28;20057;-93
2023/03/24 17:43:04;;;;;;;2.20;0.80;;;;;;;17.85;58.29;99679.50;20725061;28;20125;-86
2023/03/24 17:53:06;;;;;;;1.65;0.70;;;;;;;17.92;58.29;99685.91;20726838;28;20042;-87
2023/03/24 18:03:07;;;;;;;1.65;0.65;;;;;;;17.92;58.38;99683.22;20718932;28;20073;-87
2023/03/24 18:13:10;;;;;;;1.23;0.60;;;;;;;17.82;58.24;99676.16;20704024;28;20069;-86
2023/03/24 18:23:14;;;;;;;2.60;0.80;;;;;;;17.80;58.48;99682.69;20717426;28;20126;-86
2023/03/24 18:33:15;;;;;;;1.42;0.50;;;;;;;17.82;58.50;99692.31;20707550;28;20386;-90
2023/03/24 18:43:17;;;;;;;2.13;0.70;;;;;;;17.88;58.44;99692.66;20703305;28;20390;-84
2023/03/24 18:53:20;;;;;;;1.02;0.52;;;;;;;17.89;58.46;99691.63;20728523;28;20045;-87
2023/03/24 19:03:23;;;;;;;1.40;0.63;;;;;;;17.88;58.59;99684.56;20729777;28;20045;-86
2023/03/24 19:13:25;;;;;;;2.88;0.90;;;;;;;17.88;58.58;99689.94;20716829;28;20044;-85
2023/03/24 19:23:28;;;;;;;1.42;0.60;;;;;;;17.88;58.62;99674.63;20693132;28;20050;-85
2023/03/24 19:33:30;;;;;;;1.17;0.63;;;;;;;17.88;58.65;99674.63;20714280;28;20092;-85
2023/03/24 19:43:33;;;;;;;2.40;0.80;;;;;;;17.77;58.70;99658.78;20739249;28;20053;-83
2023/03/24 19:53:35;;;;;;;1.70;0.60;;;;;;;17.87;58.69;99677.50;20752592;28;20589;-83
2023/03/24 20:03:37;;;;;;;1.75;0.80;;;;;;;17.86;58.89;99673.13;20749051;28;20042;-83
2023/03/24 20:13:39;;;;;;;1.13;0.73;;;;;;;17.85;59.00;99652.59;20739865;28;20053;-83
2023/03/24 20:23:40;;;;;;;3.40;0.57;;;;;;;17.83;58.83;99640.13;20742025;28;20042;-83
2023/03/24 20:33:42;;;;;;;1.80;0.70;;;;;;;17.84;59.06;99643.66;20727338;28;20049;-83
2023/03/24 20:43:44;;;;;;;2.30;0.70;;;;;;;17.78;59.02;99628.19;20733780;28;20133;-83
2023/03/24 20:53:46;;;;;;;1.17;0.60;;;;;;;17.80;59.02;99616.25;20722739;28;20410;-83
2023/03/24 21:03:51;;;;;;;1.30;0.80;;;;;;;17.83;58.99;99617.75;20744151;28;20053;-83
2023/03/24 21:13:53;;;;;;;1.23;1.00;;;;;;;17.76;59.05;99596.06;20726953;28;20518;-83
2023/03/24 21:23:55;;;;;;;1.67;0.90;;;;;;;17.82;59.01;99602.59;20713755;28;20122;-83
2023/03/24 21:33:57;;;;;;;2.10;0.75;;;;;;;17.82;58.98;99618.75;20707265;28;20565;-83
2023/03/24 21:43:59;;;;;;;0.85;0.55;;;;;;;17.81;58.95;99620.63;20741157;28;20053;-83
2023/03/24 21:54:03;;;;;;;2.78;0.80;;;;;;;17.80;59.02;99612.69;20725145;28;21076;-83
2023/03/24 22:04:07;;;;;;;1.17;0.60;;;;;;;17.72;58.76;99600.09;20725667;28;20046;-82
2023/03/24 22:14:09;;;;;;;1.57;0.80;;;;;;;17.81;58.70;99612.53;20714140;28;20597;-83
2023/03/24 22:24:11;;;;;;;1.33;0.70;;;;;;;17.45;58.45;99548.25;20738508;28;20048;-83
2023/03/24 22:34:13;;;;;;;1.35;0.82;;;;;;;17.80;58.50;99592.03;20740294;28;20418;-83
2023/03/24 22:44:15;;;;;;;1.90;0.80;;;;;;;17.79;58.49;99595.72;20726553;28;20157;-83
2023/03/24 22:54:17;;;;;;;1.77;0.68;;;;;;;17.79;58.37;99601.09;20739930;28;20062;-83
2023/03/24 23:04:19;;;;;;;2.53;0.80;;;;;;;17.75;58.23;99597.06;20742657;28;20048;-83
2023/03/24 23:14:24;;;;;;;1.30;0.70;;;;;;;17.78;58.07;99596.72;20765696;28;20057;-83
2023/03/24 23:24:26;;;;;;;2.10;0.97;;;;;;;17.78;58.05;99604.81;20762009;28;20046;-83
2023/03/24 23:34:28;;;;;;;1.70;0.70;;;;;;;17.74;58.02;99600.78;20762642;28;20144;-83
2023/03/24 23:44:29;;;;;;;1.42;0.68;;;;;;;17.75;57.96;99593.53;20761463;28;20136;-83
2023/03/24 23:54:31;;;;;;;0.90;0.60;;;;;;;17.69;57.83;99595.06;20763648;28;20457;-83
